Cascade, MT (59421)

8:59 AM MDT on August 28, 2016 (GMT -0600)
Trout Montana Fly Shop, Cascade, MT | | Change Station

Elev 3376 ft 47.27 °N, 111.70 °W | Updated 3 minutes ago

Clear
Clear
73.9 °F
Feels Like 77 °F
N
10.0
Wind Variable Wind from WSW
Gusts 18.0 mph

Today
High -- | Low -- °F
--% Chance of Precip.
Yesterday
High -- | Low -- °F
Precip. -- in
Pressure 29.90 in
Visibility 10.0 miles
Clouds Clear
Heat Index 77 °F
Dew Point 43 °F
Humidity 33%
Rainfall 0.00 in
Snow Depth Not available.
6:41 AM 8:13 PM
Waning Crescent, 15% visible
METAR KGTF 281453Z 28008KT 10SM CLR 21/06 A2998 RMK AO2 SLP123 T02110056 51024
Pressure 29.90 in
Visibility 10.0 miles
Clouds Clear
Heat Index 77 °F
Dew Point 43 °F
Humidity 33%
Rainfall 0.00 in
Snow Depth Not available.
6:41 AM 8:13 PM
Waning Crescent, 15% visible
METAR KGTF 281453Z 28008KT 10SM CLR 21/06 A2998 RMK AO2 SLP123 T02110056 51024

10-Day Weather Forecast

Almanac

Astronomy

Aug. 28, 2016 Rise Set
Actual Time
Civil Twilight
Nautical Twilight
Astronomical Twilight
Moon
Length of Visible Light
Length of Day
Tomorrow will be .
, % of the Moon is Illuminated

Today's Extremes

State Highs State Lows

Community

WunderPhotos

Upload Photos

1,935,579 photos uploaded!

WunderBlog® & News

Nearby

Air Quality

  Air Quality AQ Index Pollutant
Not available.

Snow Depth

Station Depth Elevation

Earthquake Activity

City Distance Mag. Time & Date
Minimum magnitude displayed is 2.5.

Coastal Water Temperatures

Place Temperature

Stations

Nearby Weather Stations

Station Location Temp. Windchill Dew Point Humidity Wind Precip. Elev Updated Type
                   

Watches & Warnings

There are currently no watches in effect.